sensor_id;sensor_type;location;lat;lon;timestamp;P1;durP1;ratioP1;P2;durP2;ratioP2
56567;SDS011;42456;49.956;20.004;2022-09-20T00:01:10;15.50;;;9.20;;
56567;SDS011;42456;49.956;20.004;2022-09-20T00:03:45;16.10;;;9.68;;
56567;SDS011;42456;49.956;20.004;2022-09-20T00:06:14;16.70;;;9.78;;
56567;SDS011;42456;49.956;20.004;2022-09-20T00:08:43;15.72;;;9.23;;
56567;SDS011;42456;49.956;20.004;2022-09-20T00:11:12;16.75;;;9.55;;
56567;SDS011;42456;49.956;20.004;2022-09-20T00:13:42;17.77;;;10.85;;
56567;SDS011;42456;49.956;20.004;2022-09-20T00:16:12;18.57;;;10.85;;
56567;SDS011;42456;49.956;20.004;2022-09-20T00:18:50;17.62;;;10.40;;
56567;SDS011;42456;49.956;20.004;2022-09-20T00:21:19;17.00;;;10.38;;
56567;SDS011;42456;49.956;20.004;2022-09-20T00:23:52;17.73;;;10.98;;
56567;SDS011;42456;49.956;20.004;2022-09-20T00:26:21;19.73;;;11.65;;
56567;SDS011;42456;49.956;20.004;2022-09-20T00:28:48;19.42;;;11.50;;
56567;SDS011;42456;49.956;20.004;2022-09-20T00:31:16;18.77;;;11.12;;
56567;SDS011;42456;49.956;20.004;2022-09-20T00:33:43;19.57;;;11.20;;
56567;SDS011;42456;49.956;20.004;2022-09-20T00:36:23;18.95;;;11.20;;
56567;SDS011;42456;49.956;20.004;2022-09-20T00:38:55;18.70;;;11.63;;
56567;SDS011;42456;49.956;20.004;2022-09-20T00:41:25;18.65;;;10.63;;
56567;SDS011;42456;49.956;20.004;2022-09-20T00:43:53;18.45;;;10.50;;
56567;SDS011;42456;49.956;20.004;2022-09-20T00:51:40;18.02;;;11.35;;
56567;SDS011;42456;49.956;20.004;2022-09-20T00:54:10;17.50;;;11.00;;
56567;SDS011;42456;49.956;20.004;2022-09-20T00:59:10;18.15;;;10.85;;
56567;SDS011;42456;49.956;20.004;2022-09-20T01:01:51;19.57;;;11.63;;
56567;SDS011;42456;49.956;20.004;2022-09-20T01:04:28;19.07;;;12.25;;
56567;SDS011;42456;49.956;20.004;2022-09-20T01:06:56;19.40;;;12.05;;
56567;SDS011;42456;49.956;20.004;2022-09-20T01:09:25;19.73;;;12.63;;
56567;SDS011;42456;49.956;20.004;2022-09-20T01:11:52;19.27;;;11.83;;
56567;SDS011;42456;49.956;20.004;2022-09-20T01:14:20;17.98;;;10.25;;
56567;SDS011;42456;49.956;20.004;2022-09-20T01:16:49;17.92;;;11.38;;
56567;SDS011;42456;49.956;20.004;2022-09-20T01:19:23;18.50;;;10.95;;
56567;SDS011;42456;49.956;20.004;2022-09-20T01:22:18;19.00;;;10.82;;
56567;SDS011;42456;49.956;20.004;2022-09-20T01:24:55;18.60;;;10.85;;
56567;SDS011;42456;49.956;20.004;2022-09-20T01:27:39;16.27;;;10.32;;
56567;SDS011;42456;49.956;20.004;2022-09-20T01:30:20;16.30;;;10.13;;
56567;SDS011;42456;49.956;20.004;2022-09-20T01:36:01;18.60;;;11.55;;
56567;SDS011;42456;49.956;20.004;2022-09-20T01:43:55;18.57;;;11.90;;
56567;SDS011;42456;49.956;20.004;2022-09-20T01:46:30;19.50;;;12.43;;
56567;SDS011;42456;49.956;20.004;2022-09-20T01:57:35;21.57;;;13.28;;
56567;SDS011;42456;49.956;20.004;2022-09-20T02:00:20;20.08;;;12.47;;
56567;SDS011;42456;49.956;20.004;2022-09-20T02:14:29;19.25;;;11.85;;
56567;SDS011;42456;49.956;20.004;2022-09-20T02:17:10;22.10;;;11.70;;
56567;SDS011;42456;49.956;20.004;2022-09-20T02:19:45;18.67;;;11.80;;
56567;SDS011;42456;49.956;20.004;2022-09-20T02:25:07;18.07;;;11.50;;
56567;SDS011;42456;49.956;20.004;2022-09-20T02:39:31;18.37;;;11.60;;
56567;SDS011;42456;49.956;20.004;2022-09-20T02:44:54;19.07;;;11.75;;
56567;SDS011;42456;49.956;20.004;2022-09-20T03:04:50;17.65;;;12.18;;
56567;SDS011;42456;49.956;20.004;2022-09-20T03:18:45;19.77;;;12.37;;
56567;SDS011;42456;49.956;20.004;2022-09-20T03:24:21;22.40;;;13.25;;
56567;SDS011;42456;49.956;20.004;2022-09-20T03:41:41;21.00;;;12.88;;
56567;SDS011;42456;49.956;20.004;2022-09-20T03:50:06;18.73;;;11.68;;
56567;SDS011;42456;49.956;20.004;2022-09-20T04:08:07;19.00;;;10.88;;
56567;SDS011;42456;49.956;20.004;2022-09-20T04:21:33;18.52;;;11.45;;
56567;SDS011;42456;49.956;20.004;2022-09-20T04:27:08;20.35;;;12.53;;
56567;SDS011;42456;49.956;20.004;2022-09-20T04:29:59;18.92;;;11.78;;
56567;SDS011;42456;49.956;20.004;2022-09-20T04:38:15;17.60;;;11.43;;
56567;SDS011;42456;49.956;20.004;2022-09-20T04:47:04;17.35;;;11.15;;
56567;SDS011;42456;49.956;20.004;2022-09-20T05:12:45;18.10;;;11.60;;
56567;SDS011;42456;49.956;20.004;2022-09-20T05:24:09;17.87;;;11.53;;
56567;SDS011;42456;49.956;20.004;2022-09-20T05:35:24;18.20;;;10.80;;
56567;SDS011;42456;49.956;20.004;2022-09-20T05:52:51;18.48;;;12.18;;
56567;SDS011;42456;49.956;20.004;2022-09-20T06:07:31;19.42;;;11.65;;
56567;SDS011;42456;49.956;20.004;2022-09-20T06:16:20;15.45;;;10.28;;
56567;SDS011;42456;49.956;20.004;2022-09-20T06:18:58;19.00;;;10.08;;
56567;SDS011;42456;49.956;20.004;2022-09-20T06:22:15;15.72;;;10.48;;
56567;SDS011;42456;49.956;20.004;2022-09-20T06:26:57;16.90;;;10.72;;
56567;SDS011;42456;49.956;20.004;2022-09-20T06:29:29;15.08;;;9.53;;
56567;SDS011;42456;49.956;20.004;2022-09-20T06:34:24;17.37;;;10.08;;
56567;SDS011;42456;49.956;20.004;2022-09-20T06:36:53;18.82;;;10.25;;
56567;SDS011;42456;49.956;20.004;2022-09-20T06:42:39;16.42;;;10.35;;
56567;SDS011;42456;49.956;20.004;2022-09-20T06:45:07;15.48;;;9.90;;
56567;SDS011;42456;49.956;20.004;2022-09-20T06:47:33;16.87;;;9.63;;
56567;SDS011;42456;49.956;20.004;2022-09-20T06:50:00;15.35;;;9.03;;
56567;SDS011;42456;49.956;20.004;2022-09-20T06:52:27;16.55;;;9.35;;
56567;SDS011;42456;49.956;20.004;2022-09-20T06:54:53;14.75;;;8.45;;
56567;SDS011;42456;49.956;20.004;2022-09-20T06:57:22;17.25;;;9.23;;
56567;SDS011;42456;49.956;20.004;2022-09-20T06:59:55;17.20;;;9.48;;
56567;SDS011;42456;49.956;20.004;2022-09-20T07:02:22;13.78;;;8.93;;
56567;SDS011;42456;49.956;20.004;2022-09-20T07:04:48;15.70;;;9.15;;
56567;SDS011;42456;49.956;20.004;2022-09-20T07:07:16;15.32;;;8.98;;
56567;SDS011;42456;49.956;20.004;2022-09-20T07:09:43;17.07;;;10.08;;
56567;SDS011;42456;49.956;20.004;2022-09-20T07:12:10;15.08;;;9.93;;
56567;SDS011;42456;49.956;20.004;2022-09-20T07:14:36;16.15;;;10.05;;
56567;SDS011;42456;49.956;20.004;2022-09-20T07:17:03;17.07;;;11.50;;
56567;SDS011;42456;49.956;20.004;2022-09-20T07:19:30;15.55;;;10.25;;
56567;SDS011;42456;49.956;20.004;2022-09-20T07:21:57;16.42;;;9.68;;
56567;SDS011;42456;49.956;20.004;2022-09-20T07:24:23;17.20;;;10.72;;
56567;SDS011;42456;49.956;20.004;2022-09-20T07:26:56;17.17;;;10.55;;
56567;SDS011;42456;49.956;20.004;2022-09-20T07:29:26;15.13;;;9.15;;
56567;SDS011;42456;49.956;20.004;2022-09-20T07:31:53;16.55;;;9.70;;
56567;SDS011;42456;49.956;20.004;2022-09-20T07:34:20;13.22;;;8.35;;
56567;SDS011;42456;49.956;20.004;2022-09-20T07:36:47;14.25;;;8.53;;
56567;SDS011;42456;49.956;20.004;2022-09-20T07:39:15;14.35;;;8.90;;
56567;SDS011;42456;49.956;20.004;2022-09-20T07:41:42;16.00;;;9.25;;
56567;SDS011;42456;49.956;20.004;2022-09-20T07:44:13;13.20;;;8.25;;
56567;SDS011;42456;49.956;20.004;2022-09-20T07:46:46;14.33;;;9.05;;
56567;SDS011;42456;49.956;20.004;2022-09-20T07:49:14;14.47;;;8.50;;
56567;SDS011;42456;49.956;20.004;2022-09-20T07:51:40;15.93;;;9.25;;
56567;SDS011;42456;49.956;20.004;2022-09-20T07:54:06;14.68;;;9.05;;
56567;SDS011;42456;49.956;20.004;2022-09-20T07:56:33;19.42;;;13.00;;
56567;SDS011;42456;49.956;20.004;2022-09-20T07:58:59;16.97;;;10.75;;
56567;SDS011;42456;49.956;20.004;2022-09-20T08:01:26;16.48;;;10.13;;
56567;SDS011;42456;49.956;20.004;2022-09-20T08:03:52;13.75;;;8.80;;
56567;SDS011;42456;49.956;20.004;2022-09-20T08:06:20;14.15;;;8.73;;
56567;SDS011;42456;49.956;20.004;2022-09-20T08:08:46;17.17;;;10.80;;
56567;SDS011;42456;49.956;20.004;2022-09-20T08:11:14;15.60;;;9.65;;
56567;SDS011;42456;49.956;20.004;2022-09-20T08:13:48;13.90;;;9.03;;
56567;SDS011;42456;49.956;20.004;2022-09-20T08:16:17;14.10;;;8.38;;
56567;SDS011;42456;49.956;20.004;2022-09-20T08:18:45;13.85;;;8.08;;
56567;SDS011;42456;49.956;20.004;2022-09-20T08:23:41;12.15;;;7.20;;
56567;SDS011;42456;49.956;20.004;2022-09-20T08:26:10;13.08;;;7.37;;
56567;SDS011;42456;49.956;20.004;2022-09-20T08:31:10;10.45;;;6.17;;
56567;SDS011;42456;49.956;20.004;2022-09-20T08:33:43;12.60;;;6.83;;
56567;SDS011;42456;49.956;20.004;2022-09-20T08:36:12;9.70;;;5.83;;
56567;SDS011;42456;49.956;20.004;2022-09-20T08:38:41;10.18;;;6.47;;
56567;SDS011;42456;49.956;20.004;2022-09-20T08:43:58;9.78;;;6.08;;
56567;SDS011;42456;49.956;20.004;2022-09-20T08:46:29;7.97;;;5.60;;
56567;SDS011;42456;49.956;20.004;2022-09-20T08:49:05;9.90;;;6.25;;
56567;SDS011;42456;49.956;20.004;2022-09-20T08:51:33;11.93;;;6.00;;
56567;SDS011;42456;49.956;20.004;2022-09-20T08:54:05;10.10;;;6.45;;
56567;SDS011;42456;49.956;20.004;2022-09-20T08:56:36;8.03;;;5.87;;
56567;SDS011;42456;49.956;20.004;2022-09-20T08:59:02;7.47;;;5.62;;
56567;SDS011;42456;49.956;20.004;2022-09-20T09:01:34;8.50;;;5.12;;
56567;SDS011;42456;49.956;20.004;2022-09-20T09:04:04;7.50;;;5.00;;
56567;SDS011;42456;49.956;20.004;2022-09-20T09:09:08;11.38;;;5.20;;
56567;SDS011;42456;49.956;20.004;2022-09-20T09:11:44;7.28;;;5.08;;
56567;SDS011;42456;49.956;20.004;2022-09-20T09:14:12;7.58;;;5.10;;
56567;SDS011;42456;49.956;20.004;2022-09-20T09:17:09;9.00;;;5.90;;
56567;SDS011;42456;49.956;20.004;2022-09-20T09:19:44;9.23;;;6.30;;
56567;SDS011;42456;49.956;20.004;2022-09-20T09:22:17;6.03;;;4.47;;
56567;SDS011;42456;49.956;20.004;2022-09-20T09:25:18;9.25;;;5.60;;
56567;SDS011;42456;49.956;20.004;2022-09-20T09:27:51;7.85;;;5.03;;
56567;SDS011;42456;49.956;20.004;2022-09-20T09:38:40;12.43;;;5.35;;
56567;SDS011;42456;49.956;20.004;2022-09-20T09:44:50;7.65;;;5.70;;
56567;SDS011;42456;49.956;20.004;2022-09-20T09:46:36;6.95;;;4.92;;
56567;SDS011;42456;49.956;20.004;2022-09-20T09:49:06;8.70;;;5.58;;
56567;SDS011;42456;49.956;20.004;2022-09-20T09:54:45;7.83;;;4.15;;
56567;SDS011;42456;49.956;20.004;2022-09-20T10:00:13;10.95;;;4.87;;
56567;SDS011;42456;49.956;20.004;2022-09-20T10:22:26;7.80;;;4.65;;
56567;SDS011;42456;49.956;20.004;2022-09-20T10:27:59;7.03;;;4.97;;
56567;SDS011;42456;49.956;20.004;2022-09-20T10:33:35;6.00;;;4.40;;
56567;SDS011;42456;49.956;20.004;2022-09-20T10:53:27;6.90;;;4.40;;
56567;SDS011;42456;49.956;20.004;2022-09-20T10:56:30;7.03;;;4.80;;
56567;SDS011;42456;49.956;20.004;2022-09-20T11:10:49;7.45;;;4.72;;
56567;SDS011;42456;49.956;20.004;2022-09-20T11:13:25;7.80;;;5.47;;
56567;SDS011;42456;49.956;20.004;2022-09-20T11:21:26;7.47;;;5.25;;
56567;SDS011;42456;49.956;20.004;2022-09-20T11:24:04;9.90;;;5.85;;
56567;SDS011;42456;49.956;20.004;2022-09-20T11:26:53;10.43;;;6.10;;
56567;SDS011;42456;49.956;20.004;2022-09-20T11:37:34;6.22;;;4.95;;
56567;SDS011;42456;49.956;20.004;2022-09-20T11:40:11;6.25;;;4.50;;
56567;SDS011;42456;49.956;20.004;2022-09-20T11:42:51;6.70;;;4.37;;
56567;SDS011;42456;49.956;20.004;2022-09-20T11:45:18;7.37;;;4.42;;
56567;SDS011;42456;49.956;20.004;2022-09-20T11:47:47;5.67;;;4.15;;
56567;SDS011;42456;49.956;20.004;2022-09-20T11:58:45;5.17;;;3.40;;
56567;SDS011;42456;49.956;20.004;2022-09-20T12:01:15;3.42;;;2.85;;
56567;SDS011;42456;49.956;20.004;2022-09-20T12:03:55;4.05;;;3.00;;
56567;SDS011;42456;49.956;20.004;2022-09-20T12:06:33;4.47;;;3.10;;
56567;SDS011;42456;49.956;20.004;2022-09-20T12:09:05;3.25;;;2.95;;
56567;SDS011;42456;49.956;20.004;2022-09-20T12:11:36;5.08;;;2.90;;
56567;SDS011;42456;49.956;20.004;2022-09-20T12:14:06;6.30;;;3.05;;
56567;SDS011;42456;49.956;20.004;2022-09-20T12:16:45;4.70;;;3.50;;
56567;SDS011;42456;49.956;20.004;2022-09-20T12:19:14;4.28;;;3.45;;
56567;SDS011;42456;49.956;20.004;2022-09-20T12:24:36;4.72;;;3.40;;
56567;SDS011;42456;49.956;20.004;2022-09-20T12:43:35;4.10;;;2.70;;
56567;SDS011;42456;49.956;20.004;2022-09-20T12:46:05;3.67;;;2.95;;
56567;SDS011;42456;49.956;20.004;2022-09-20T12:48:35;3.67;;;2.65;;
56567;SDS011;42456;49.956;20.004;2022-09-20T12:51:02;4.58;;;2.72;;
56567;SDS011;42456;49.956;20.004;2022-09-20T12:56:35;3.40;;;2.50;;
56567;SDS011;42456;49.956;20.004;2022-09-20T12:59:04;4.47;;;2.80;;
56567;SDS011;42456;49.956;20.004;2022-09-20T13:01:47;3.15;;;2.50;;
56567;SDS011;42456;49.956;20.004;2022-09-20T13:12:55;2.65;;;2.30;;
56567;SDS011;42456;49.956;20.004;2022-09-20T13:15:30;3.12;;;2.33;;
56567;SDS011;42456;49.956;20.004;2022-09-20T13:17:58;2.83;;;2.10;;
56567;SDS011;42456;49.956;20.004;2022-09-20T13:20:26;3.80;;;2.25;;
56567;SDS011;42456;49.956;20.004;2022-09-20T13:22:58;3.27;;;2.15;;
56567;SDS011;42456;49.956;20.004;2022-09-20T13:25:26;3.17;;;2.05;;
56567;SDS011;42456;49.956;20.004;2022-09-20T13:35:42;2.42;;;1.75;;
56567;SDS011;42456;49.956;20.004;2022-09-20T13:38:11;1.60;;;1.50;;
56567;SDS011;42456;49.956;20.004;2022-09-20T13:40:43;2.20;;;1.50;;
56567;SDS011;42456;49.956;20.004;2022-09-20T13:48:41;4.75;;;2.00;;
56567;SDS011;42456;49.956;20.004;2022-09-20T13:51:15;1.95;;;1.70;;
56567;SDS011;42456;49.956;20.004;2022-09-20T13:53:52;2.75;;;1.62;;
56567;SDS011;42456;49.956;20.004;2022-09-20T13:56:24;2.47;;;1.87;;
56567;SDS011;42456;49.956;20.004;2022-09-20T13:58:54;2.77;;;1.67;;
56567;SDS011;42456;49.956;20.004;2022-09-20T14:01:26;2.00;;;1.80;;
56567;SDS011;42456;49.956;20.004;2022-09-20T14:04:12;2.15;;;1.95;;
56567;SDS011;42456;49.956;20.004;2022-09-20T14:06:32;1.92;;;1.70;;
56567;SDS011;42456;49.956;20.004;2022-09-20T14:09:00;1.77;;;1.50;;
56567;SDS011;42456;49.956;20.004;2022-09-20T14:11:30;1.60;;;1.32;;
56567;SDS011;42456;49.956;20.004;2022-09-20T14:13:58;1.98;;;1.37;;
56567;SDS011;42456;49.956;20.004;2022-09-20T14:16:32;2.20;;;1.40;;
56567;SDS011;42456;49.956;20.004;2022-09-20T14:19:02;3.37;;;1.40;;
56567;SDS011;42456;49.956;20.004;2022-09-20T14:21:32;1.65;;;1.42;;
56567;SDS011;42456;49.956;20.004;2022-09-20T14:24:20;1.72;;;1.42;;
56567;SDS011;42456;49.956;20.004;2022-09-20T14:26:41;2.15;;;1.90;;
56567;SDS011;42456;49.956;20.004;2022-09-20T14:32:29;5.47;;;1.92;;
56567;SDS011;42456;49.956;20.004;2022-09-20T14:43:01;2.25;;;1.85;;
56567;SDS011;42456;49.956;20.004;2022-09-20T14:45:31;2.30;;;2.10;;
56567;SDS011;42456;49.956;20.004;2022-09-20T14:48:04;4.03;;;2.17;;
56567;SDS011;42456;49.956;20.004;2022-09-20T14:50:38;2.62;;;2.00;;
56567;SDS011;42456;49.956;20.004;2022-09-20T14:58:31;7.08;;;3.83;;
56567;SDS011;42456;49.956;20.004;2022-09-20T15:01:03;5.90;;;2.83;;
56567;SDS011;42456;49.956;20.004;2022-09-20T15:03:39;4.92;;;2.85;;
56567;SDS011;42456;49.956;20.004;2022-09-20T15:06:09;5.53;;;2.52;;
56567;SDS011;42456;49.956;20.004;2022-09-20T15:08:37;3.65;;;2.58;;
56567;SDS011;42456;49.956;20.004;2022-09-20T15:11:04;4.55;;;3.30;;
56567;SDS011;42456;49.956;20.004;2022-09-20T15:13:31;5.17;;;2.50;;
56567;SDS011;42456;49.956;20.004;2022-09-20T15:15:59;3.98;;;2.55;;
56567;SDS011;42456;49.956;20.004;2022-09-20T15:18:26;3.05;;;2.20;;
56567;SDS011;42456;49.956;20.004;2022-09-20T15:20:58;3.40;;;2.58;;
56567;SDS011;42456;49.956;20.004;2022-09-20T15:23:26;3.67;;;2.52;;
56567;SDS011;42456;49.956;20.004;2022-09-20T15:25:52;4.87;;;2.77;;
56567;SDS011;42456;49.956;20.004;2022-09-20T15:28:20;4.05;;;2.47;;
56567;SDS011;42456;49.956;20.004;2022-09-20T15:30:47;4.05;;;2.50;;
56567;SDS011;42456;49.956;20.004;2022-09-20T15:33:16;4.70;;;2.87;;
56567;SDS011;42456;49.956;20.004;2022-09-20T15:35:44;3.95;;;2.65;;
56567;SDS011;42456;49.956;20.004;2022-09-20T15:38:11;4.90;;;2.70;;
56567;SDS011;42456;49.956;20.004;2022-09-20T15:40:39;4.95;;;2.80;;
56567;SDS011;42456;49.956;20.004;2022-09-20T15:43:08;3.12;;;2.30;;
56567;SDS011;42456;49.956;20.004;2022-09-20T15:48:26;5.53;;;2.80;;
56567;SDS011;42456;49.956;20.004;2022-09-20T15:51:04;6.28;;;3.10;;
56567;SDS011;42456;49.956;20.004;2022-09-20T15:56:04;4.72;;;2.87;;
56567;SDS011;42456;49.956;20.004;2022-09-20T15:58:59;4.87;;;3.10;;
56567;SDS011;42456;49.956;20.004;2022-09-20T16:01:30;5.42;;;3.45;;
56567;SDS011;42456;49.956;20.004;2022-09-20T16:04:12;5.15;;;3.10;;
56567;SDS011;42456;49.956;20.004;2022-09-20T16:06:38;6.50;;;3.30;;
56567;SDS011;42456;49.956;20.004;2022-09-20T16:09:06;5.47;;;3.10;;
56567;SDS011;42456;49.956;20.004;2022-09-20T16:11:33;5.25;;;2.58;;
56567;SDS011;42456;49.956;20.004;2022-09-20T16:14:00;8.23;;;2.85;;
56567;SDS011;42456;49.956;20.004;2022-09-20T16:16:28;8.60;;;3.90;;
56567;SDS011;42456;49.956;20.004;2022-09-20T16:18:55;9.03;;;4.00;;
56567;SDS011;42456;49.956;20.004;2022-09-20T16:21:36;10.70;;;4.72;;
56567;SDS011;42456;49.956;20.004;2022-09-20T16:24:04;9.48;;;4.05;;
56567;SDS011;42456;49.956;20.004;2022-09-20T16:26:32;5.55;;;3.25;;
56567;SDS011;42456;49.956;20.004;2022-09-20T16:29:00;7.33;;;3.65;;
56567;SDS011;42456;49.956;20.004;2022-09-20T16:34:06;5.90;;;3.15;;
56567;SDS011;42456;49.956;20.004;2022-09-20T16:36:44;8.30;;;3.95;;
56567;SDS011;42456;49.956;20.004;2022-09-20T16:39:16;9.88;;;3.70;;
56567;SDS011;42456;49.956;20.004;2022-09-20T16:41:47;7.37;;;3.85;;
56567;SDS011;42456;49.956;20.004;2022-09-20T16:44:14;7.50;;;3.42;;
56567;SDS011;42456;49.956;20.004;2022-09-20T16:46:41;5.17;;;3.15;;
56567;SDS011;42456;49.956;20.004;2022-09-20T16:49:09;5.72;;;3.50;;
56567;SDS011;42456;49.956;20.004;2022-09-20T16:51:38;4.72;;;2.80;;
56567;SDS011;42456;49.956;20.004;2022-09-20T16:54:08;5.90;;;2.80;;
56567;SDS011;42456;49.956;20.004;2022-09-20T16:59:05;6.03;;;3.22;;
56567;SDS011;42456;49.956;20.004;2022-09-20T17:01:32;7.70;;;3.30;;
56567;SDS011;42456;49.956;20.004;2022-09-20T17:04:01;5.90;;;3.40;;
56567;SDS011;42456;49.956;20.004;2022-09-20T17:08:58;8.25;;;3.70;;
56567;SDS011;42456;49.956;20.004;2022-09-20T17:11:27;10.75;;;4.35;;
56567;SDS011;42456;49.956;20.004;2022-09-20T17:13:55;9.68;;;4.67;;
56567;SDS011;42456;49.956;20.004;2022-09-20T17:16:26;11.33;;;5.25;;
56567;SDS011;42456;49.956;20.004;2022-09-20T17:18:59;11.43;;;5.42;;
56567;SDS011;42456;49.956;20.004;2022-09-20T17:21:30;10.08;;;4.95;;
56567;SDS011;42456;49.956;20.004;2022-09-20T17:24:00;10.60;;;5.00;;
56567;SDS011;42456;49.956;20.004;2022-09-20T17:26:35;11.38;;;5.50;;
56567;SDS011;42456;49.956;20.004;2022-09-20T17:29:06;12.05;;;4.97;;
56567;SDS011;42456;49.956;20.004;2022-09-20T17:34:04;10.35;;;4.85;;
56567;SDS011;42456;49.956;20.004;2022-09-20T17:36:34;8.85;;;4.83;;
56567;SDS011;42456;49.956;20.004;2022-09-20T17:39:10;11.78;;;5.28;;
56567;SDS011;42456;49.956;20.004;2022-09-20T17:41:38;9.73;;;4.90;;
56567;SDS011;42456;49.956;20.004;2022-09-20T17:44:06;8.65;;;4.53;;
56567;SDS011;42456;49.956;20.004;2022-09-20T17:46:34;10.88;;;5.00;;
56567;SDS011;42456;49.956;20.004;2022-09-20T17:49:07;10.55;;;5.22;;
56567;SDS011;42456;49.956;20.004;2022-09-20T17:51:40;11.78;;;5.35;;
56567;SDS011;42456;49.956;20.004;2022-09-20T17:54:15;11.65;;;5.10;;
56567;SDS011;42456;49.956;20.004;2022-09-20T17:56:42;10.30;;;4.72;;
56567;SDS011;42456;49.956;20.004;2022-09-20T17:59:12;9.65;;;5.05;;
56567;SDS011;42456;49.956;20.004;2022-09-20T18:01:40;11.78;;;5.35;;
56567;SDS011;42456;49.956;20.004;2022-09-20T18:04:08;13.22;;;6.12;;
56567;SDS011;42456;49.956;20.004;2022-09-20T18:06:46;11.05;;;5.33;;
56567;SDS011;42456;49.956;20.004;2022-09-20T18:09:13;13.48;;;6.58;;
56567;SDS011;42456;49.956;20.004;2022-09-20T18:11:42;16.60;;;6.78;;
56567;SDS011;42456;49.956;20.004;2022-09-20T18:14:13;13.25;;;6.40;;
56567;SDS011;42456;49.956;20.004;2022-09-20T18:16:44;11.50;;;6.37;;
56567;SDS011;42456;49.956;20.004;2022-09-20T18:19:11;11.48;;;6.20;;
56567;SDS011;42456;49.956;20.004;2022-09-20T18:21:40;13.60;;;6.35;;
56567;SDS011;42456;49.956;20.004;2022-09-20T18:24:09;13.50;;;6.85;;
56567;SDS011;42456;49.956;20.004;2022-09-20T18:26:36;12.50;;;6.50;;
56567;SDS011;42456;49.956;20.004;2022-09-20T18:29:04;11.15;;;6.10;;
56567;SDS011;42456;49.956;20.004;2022-09-20T18:34:13;11.75;;;5.85;;
56567;SDS011;42456;49.956;20.004;2022-09-20T18:39:10;8.75;;;4.83;;
56567;SDS011;42456;49.956;20.004;2022-09-20T18:41:38;12.30;;;5.42;;
56567;SDS011;42456;49.956;20.004;2022-09-20T18:44:05;11.28;;;5.37;;
56567;SDS011;42456;49.956;20.004;2022-09-20T18:46:32;12.18;;;6.35;;
56567;SDS011;42456;49.956;20.004;2022-09-20T18:49:04;11.43;;;5.58;;
56567;SDS011;42456;49.956;20.004;2022-09-20T18:51:34;10.80;;;5.40;;
56567;SDS011;42456;49.956;20.004;2022-09-20T18:54:01;10.98;;;5.45;;
56567;SDS011;42456;49.956;20.004;2022-09-20T18:56:31;12.10;;;5.62;;
56567;SDS011;42456;49.956;20.004;2022-09-20T18:59:06;10.43;;;5.72;;
56567;SDS011;42456;49.956;20.004;2022-09-20T19:10:23;14.75;;;5.78;;
56567;SDS011;42456;49.956;20.004;2022-09-20T19:18:58;13.60;;;6.90;;
56567;SDS011;42456;49.956;20.004;2022-09-20T19:21:44;11.45;;;6.42;;
56567;SDS011;42456;49.956;20.004;2022-09-20T19:27:10;12.13;;;6.15;;
56567;SDS011;42456;49.956;20.004;2022-09-20T19:29:38;14.07;;;6.85;;
56567;SDS011;42456;49.956;20.004;2022-09-20T19:32:08;12.70;;;7.10;;
56567;SDS011;42456;49.956;20.004;2022-09-20T19:34:37;15.48;;;7.22;;
56567;SDS011;42456;49.956;20.004;2022-09-20T19:45:47;13.98;;;7.28;;
56567;SDS011;42456;49.956;20.004;2022-09-20T19:51:10;14.58;;;7.58;;
56567;SDS011;42456;49.956;20.004;2022-09-20T19:53:37;15.03;;;7.30;;
56567;SDS011;42456;49.956;20.004;2022-09-20T19:58:53;13.68;;;7.78;;
56567;SDS011;42456;49.956;20.004;2022-09-20T20:01:21;13.45;;;7.33;;
56567;SDS011;42456;49.956;20.004;2022-09-20T20:03:49;16.05;;;7.80;;
56567;SDS011;42456;49.956;20.004;2022-09-20T20:09:06;13.85;;;7.70;;
56567;SDS011;42456;49.956;20.004;2022-09-20T20:11:53;15.72;;;7.90;;
56567;SDS011;42456;49.956;20.004;2022-09-20T20:14:48;14.13;;;8.18;;
56567;SDS011;42456;49.956;20.004;2022-09-20T20:23:17;13.40;;;7.67;;
56567;SDS011;42456;49.956;20.004;2022-09-20T20:25:57;14.07;;;8.48;;
56567;SDS011;42456;49.956;20.004;2022-09-20T20:28:43;17.52;;;7.95;;
56567;SDS011;42456;49.956;20.004;2022-09-20T20:31:09;15.45;;;8.55;;
56567;SDS011;42456;49.956;20.004;2022-09-20T20:33:36;16.15;;;8.83;;
56567;SDS011;42456;49.956;20.004;2022-09-20T20:36:03;16.40;;;7.97;;
56567;SDS011;42456;49.956;20.004;2022-09-20T20:38:33;16.17;;;8.25;;
56567;SDS011;42456;49.956;20.004;2022-09-20T20:41:04;14.93;;;8.03;;
56567;SDS011;42456;49.956;20.004;2022-09-20T20:43:35;16.60;;;7.87;;
56567;SDS011;42456;49.956;20.004;2022-09-20T20:46:05;15.10;;;8.35;;
56567;SDS011;42456;49.956;20.004;2022-09-20T20:51:15;14.38;;;7.65;;
56567;SDS011;42456;49.956;20.004;2022-09-20T20:53:41;21.68;;;8.70;;
56567;SDS011;42456;49.956;20.004;2022-09-20T20:56:13;15.88;;;8.93;;
56567;SDS011;42456;49.956;20.004;2022-09-20T20:58:42;18.65;;;8.80;;
56567;SDS011;42456;49.956;20.004;2022-09-20T21:01:10;16.60;;;9.18;;
56567;SDS011;42456;49.956;20.004;2022-09-20T21:03:49;16.57;;;8.20;;
56567;SDS011;42456;49.956;20.004;2022-09-20T21:06:17;15.32;;;8.03;;
56567;SDS011;42456;49.956;20.004;2022-09-20T21:08:46;15.13;;;8.48;;
56567;SDS011;42456;49.956;20.004;2022-09-20T21:13:53;17.20;;;9.38;;
56567;SDS011;42456;49.956;20.004;2022-09-20T21:16:27;15.13;;;8.80;;
56567;SDS011;42456;49.956;20.004;2022-09-20T21:18:56;17.25;;;9.55;;
56567;SDS011;42456;49.956;20.004;2022-09-20T21:21:28;18.73;;;9.30;;
56567;SDS011;42456;49.956;20.004;2022-09-20T21:23:57;17.65;;;8.88;;
56567;SDS011;42456;49.956;20.004;2022-09-20T21:26:29;18.92;;;9.48;;
56567;SDS011;42456;49.956;20.004;2022-09-20T21:29:02;18.92;;;9.98;;
56567;SDS011;42456;49.956;20.004;2022-09-20T21:31:28;18.27;;;9.53;;
56567;SDS011;42456;49.956;20.004;2022-09-20T21:33:57;18.15;;;9.68;;
56567;SDS011;42456;49.956;20.004;2022-09-20T21:36:25;17.07;;;9.50;;
56567;SDS011;42456;49.956;20.004;2022-09-20T21:38:53;16.60;;;9.48;;
56567;SDS011;42456;49.956;20.004;2022-09-20T21:41:24;17.95;;;10.10;;
56567;SDS011;42456;49.956;20.004;2022-09-20T21:43:56;17.57;;;9.63;;
56567;SDS011;42456;49.956;20.004;2022-09-20T21:46:25;17.98;;;10.60;;
56567;SDS011;42456;49.956;20.004;2022-09-20T21:49:00;16.97;;;10.45;;
56567;SDS011;42456;49.956;20.004;2022-09-20T21:51:28;17.90;;;10.82;;
56567;SDS011;42456;49.956;20.004;2022-09-20T21:53:56;17.95;;;10.20;;
56567;SDS011;42456;49.956;20.004;2022-09-20T21:56:24;21.00;;;11.45;;
56567;SDS011;42456;49.956;20.004;2022-09-20T21:58:53;19.73;;;10.80;;
56567;SDS011;42456;49.956;20.004;2022-09-20T22:01:20;17.35;;;10.00;;
56567;SDS011;42456;49.956;20.004;2022-09-20T22:03:50;17.87;;;10.53;;
56567;SDS011;42456;49.956;20.004;2022-09-20T22:06:24;18.82;;;10.15;;
56567;SDS011;42456;49.956;20.004;2022-09-20T22:11:23;18.40;;;10.00;;
56567;SDS011;42456;49.956;20.004;2022-09-20T22:13:52;17.82;;;10.32;;
56567;SDS011;42456;49.956;20.004;2022-09-20T22:18:54;21.60;;;11.48;;
56567;SDS011;42456;49.956;20.004;2022-09-20T22:21:22;17.23;;;10.72;;
56567;SDS011;42456;49.956;20.004;2022-09-20T22:23:53;20.55;;;12.13;;
56567;SDS011;42456;49.956;20.004;2022-09-20T22:26:22;24.27;;;12.20;;
56567;SDS011;42456;49.956;20.004;2022-09-20T22:28:50;19.67;;;11.38;;
56567;SDS011;42456;49.956;20.004;2022-09-20T22:31:18;19.20;;;11.12;;
56567;SDS011;42456;49.956;20.004;2022-09-20T22:33:50;20.43;;;11.05;;